76CO weather

Hoy Airstrip
Bennett, Colorado, United States

Public forecast

Using degrees Fahrenheit for public forecast. Weather courtesy of forecast.io.

METAR (pilot weather report)

Closest report is Front Range Airport, 6.4 nm (11.8 km) WSW. Retrieved 2019/04/22 01:50 UTC (24 minutes ago):

KFTG 220150Z 02011KT 10SM BKN085 BKN150 BKN200 09/07 A3003

TAF (pilot weather forecast)

Forecast is more than 12 hours old.

Closest forecast is Denver International Airport, 11.7 nm (21.6 km) W. Retrieved 2019/04/21 00:22 UTC (1 day ago):

TAF KDEN 212320Z 2200/2306 03012KT P6SM VCSH SCT020 BKN070 TEMPO 2202/2204 03015G26KT -SHRA BKN025 FM220400 03012G18KT 5SM BR VCSH BKN012 OVC022 FM221200 05009KT 5SM -SHRA BR BKN006 OVC022 FM221900 05007KT P6SM VCSH SCT008 BKN015 FM230300 34007KT P6SM BKN025